createdAt,value
2022-11-02T00:00:14.902Z,100.00
2022-11-02T00:01:25.847Z,100.00
2022-11-02T00:02:28.017Z,100.00
2022-11-02T00:03:30.140Z,100.00
2022-11-02T00:04:32.322Z,100.00
2022-11-02T00:05:34.411Z,100.00
2022-11-02T00:06:36.966Z,100.00
2022-11-02T00:07:39.888Z,100.00
2022-11-02T00:08:42.065Z,100.00
2022-11-02T00:09:44.154Z,100.00
2022-11-02T00:10:46.239Z,100.00
2022-11-02T00:11:54.983Z,100.00
2022-11-02T00:12:57.717Z,100.00
2022-11-02T00:13:59.824Z,100.00
2022-11-02T00:15:02.039Z,100.00
2022-11-02T00:16:07.555Z,100.00
2022-11-02T00:17:09.659Z,100.00
2022-11-02T00:18:13.992Z,100.00
2022-11-02T00:19:16.142Z,100.00
2022-11-02T00:20:19.867Z,100.00
2022-11-02T00:21:24.564Z,100.00
2022-11-02T00:22:26.991Z,100.00
2022-11-02T00:23:30.237Z,100.00
2022-11-02T00:24:33.188Z,100.00
2022-11-02T00:25:40.038Z,100.00
2022-11-02T00:26:42.171Z,100.00
2022-11-02T00:27:44.429Z,100.00
2022-11-02T00:28:46.898Z,100.00
2022-11-02T00:29:49.792Z,100.00
2022-11-02T00:30:51.921Z,100.00
2022-11-02T00:31:54.016Z,100.00
2022-11-02T00:32:57.047Z,100.00
2022-11-02T00:33:59.178Z,100.00
2022-11-02T00:35:01.338Z,100.00
2022-11-02T00:36:03.633Z,100.00
2022-11-02T00:37:05.776Z,100.00
2022-11-02T00:38:09.545Z,100.00
2022-11-02T00:39:11.778Z,100.00
2022-11-02T00:40:14.378Z,100.00
2022-11-02T00:41:19.004Z,100.00
2022-11-02T00:42:21.199Z,100.00
2022-11-02T00:43:23.406Z,100.00
2022-11-02T00:44:25.482Z,100.00
2022-11-02T00:45:28.078Z,100.00
2022-11-02T00:46:30.702Z,100.00
2022-11-02T00:47:33.362Z,100.00
2022-11-02T00:48:36.221Z,100.00
2022-11-02T00:49:38.915Z,100.00
2022-11-02T00:50:41.672Z,100.00
2022-11-02T00:51:44.284Z,100.00
2022-11-02T00:52:48.808Z,100.00
2022-11-02T00:53:50.996Z,100.00
2022-11-02T00:54:53.091Z,100.00
2022-11-02T00:55:55.283Z,100.00
2022-11-02T00:56:57.716Z,100.00
2022-11-02T00:57:59.998Z,100.00
2022-11-02T00:59:02.135Z,100.00
2022-11-02T01:00:05.723Z,100.00
2022-11-02T01:01:08.824Z,100.00
2022-11-02T01:02:11.840Z,100.00
2022-11-02T01:03:14.003Z,100.00
2022-11-02T01:04:20.376Z,100.00
2022-11-02T01:05:22.480Z,100.00
2022-11-02T01:06:24.698Z,100.00
2022-11-02T01:07:29.610Z,100.00
2022-11-02T01:08:32.949Z,100.00
2022-11-02T01:09:35.619Z,100.00
2022-11-02T01:10:37.695Z,100.00
2022-11-02T01:11:40.735Z,100.00
2022-11-02T01:12:42.801Z,100.00
2022-11-02T01:13:46.788Z,100.00
2022-11-02T01:14:49.452Z,100.00
2022-11-02T01:15:51.567Z,100.00
2022-11-02T01:16:53.656Z,100.00
2022-11-02T01:17:55.872Z,100.00
2022-11-02T01:18:58.860Z,100.00
2022-11-02T01:20:00.939Z,100.00
2022-11-02T01:21:04.234Z,100.00
2022-11-02T01:22:06.546Z,100.00
2022-11-02T01:23:09.904Z,100.00
2022-11-02T01:24:12.070Z,100.00
2022-11-02T01:25:14.198Z,100.00
2022-11-02T01:26:16.665Z,100.00
2022-11-02T01:27:18.733Z,100.00
2022-11-02T01:28:20.908Z,100.00
2022-11-02T01:29:23.102Z,100.00
2022-11-02T01:30:25.174Z,100.00
2022-11-02T01:31:27.236Z,100.00
2022-11-02T01:32:30.589Z,100.00
2022-11-02T01:33:32.967Z,100.00
2022-11-02T01:34:35.138Z,100.00
2022-11-02T01:35:37.267Z,100.00
2022-11-02T01:36:39.446Z,100.00
2022-11-02T01:37:41.596Z,100.00
2022-11-02T01:38:44.028Z,100.00
2022-11-02T01:39:46.188Z,100.00
2022-11-02T01:40:48.687Z,100.00
2022-11-02T01:41:52.757Z,100.00
2022-11-02T01:42:54.834Z,100.00
2022-11-02T01:44:01.385Z,100.00
2022-11-02T01:45:03.849Z,100.00
2022-11-02T01:46:13.925Z,100.00
2022-11-02T01:47:27.930Z,100.00
2022-11-02T01:49:07.950Z,100.00
2022-11-02T01:50:14.489Z,100.00
2022-11-02T01:51:26.134Z,100.00
2022-11-02T01:52:34.328Z,100.00
2022-11-02T01:53:39.780Z,100.00
2022-11-02T01:54:48.234Z,100.00
2022-11-02T01:55:50.885Z,100.00
2022-11-02T01:57:00.401Z,100.00
2022-11-02T01:58:07.630Z,100.00
2022-11-02T01:59:24.098Z,100.00
2022-11-02T02:00:26.256Z,100.00
2022-11-02T02:01:29.908Z,100.00
2022-11-02T02:02:35.186Z,100.00
2022-11-02T02:03:42.335Z,100.00
2022-11-02T02:04:48.033Z,100.00
2022-11-02T02:05:56.511Z,100.00
2022-11-02T02:06:59.083Z,100.00
2022-11-02T02:08:03.833Z,100.00
2022-11-02T02:09:08.974Z,100.00
2022-11-02T02:10:11.945Z,100.00
2022-11-02T02:11:27.772Z,100.00
2022-11-02T02:12:31.328Z,100.00
2022-11-02T02:13:33.489Z,100.00
2022-11-02T02:14:36.261Z,100.00
2022-11-02T02:15:43.877Z,100.00
2022-11-02T02:17:01.598Z,100.00
2022-11-02T02:18:14.462Z,100.00
2022-11-02T02:19:39.041Z,100.00
2022-11-02T02:20:44.211Z,100.00
2022-11-02T02:22:12.839Z,100.00
2022-11-02T02:23:37.528Z,100.00
2022-11-02T02:24:48.795Z,100.00
2022-11-02T02:26:09.794Z,100.00
2022-11-02T02:27:23.573Z,100.00
2022-11-02T02:28:44.417Z,100.00
2022-11-02T02:30:05.274Z,100.00
2022-11-02T02:31:31.970Z,100.00
2022-11-02T02:32:53.193Z,100.00
2022-11-02T02:34:11.747Z,100.00
2022-11-02T02:35:19.565Z,100.00
2022-11-02T02:36:34.784Z,100.00
2022-11-02T02:37:46.111Z,100.00
2022-11-02T02:38:58.452Z,100.00
2022-11-02T02:40:47.908Z,100.00
2022-11-02T02:42:00.682Z,100.00
2022-11-02T02:43:06.110Z,100.00
2022-11-02T02:44:13.789Z,100.00
2022-11-02T02:45:36.796Z,100.00
2022-11-02T02:47:09.402Z,100.00
2022-11-02T02:48:18.938Z,100.00
2022-11-02T02:49:35.570Z,100.00
2022-11-02T02:50:48.305Z,100.00
2022-11-02T02:51:53.155Z,100.00
2022-11-02T02:52:58.264Z,100.00
2022-11-02T02:54:09.265Z,100.00
2022-11-02T02:55:18.797Z,100.00
2022-11-02T02:56:23.851Z,100.00
2022-11-02T02:57:30.533Z,100.00
2022-11-02T02:58:40.246Z,100.00
2022-11-02T02:59:44.601Z,100.00
2022-11-02T03:00:49.417Z,100.00
2022-11-02T03:01:53.139Z,100.00
2022-11-02T03:03:01.005Z,100.00
2022-11-02T03:04:03.621Z,100.00
2022-11-02T03:05:25.399Z,100.00
2022-11-02T03:06:30.750Z,100.00
2022-11-02T03:07:35.636Z,100.00
2022-11-02T03:08:48.396Z,100.00
2022-11-02T03:09:52.050Z,100.00
2022-11-02T03:11:16.995Z,100.00
2022-11-02T03:12:33.827Z,100.00
2022-11-02T03:13:47.632Z,100.00
2022-11-02T03:15:14.649Z,100.00
2022-11-02T03:16:27.257Z,100.00
2022-11-02T03:17:38.912Z,100.00
2022-11-02T03:18:57.414Z,100.00
2022-11-02T03:20:08.325Z,100.00
2022-11-02T03:21:41.154Z,100.00
2022-11-02T03:22:53.143Z,100.00
2022-11-02T03:24:38.691Z,100.00
2022-11-02T03:25:59.216Z,100.00
2022-11-02T03:27:22.653Z,100.00
2022-11-02T03:28:31.776Z,100.00
2022-11-02T03:29:53.289Z,100.00
2022-11-02T03:31:07.127Z,100.00
2022-11-02T03:32:19.478Z,100.00
2022-11-02T03:33:26.228Z,100.00
2022-11-02T03:34:55.976Z,100.00
2022-11-02T03:36:15.074Z,100.00
2022-11-02T03:37:20.094Z,100.00
2022-11-02T03:38:28.548Z,100.00
2022-11-02T03:39:41.150Z,100.00
2022-11-02T03:40:50.694Z,100.00
2022-11-02T03:41:57.933Z,100.00
2022-11-02T03:43:00.929Z,100.00
2022-11-02T03:44:08.772Z,100.00
2022-11-02T03:45:16.016Z,100.00
2022-11-02T03:46:20.741Z,100.00
2022-11-02T03:47:26.032Z,100.00
2022-11-02T03:48:37.205Z,100.00
2022-11-02T03:49:42.664Z,100.00
2022-11-02T03:50:50.230Z,100.00
2022-11-02T03:51:57.071Z,100.00
2022-11-02T03:53:15.328Z,100.00
2022-11-02T03:55:06.106Z,100.00
2022-11-02T03:56:16.989Z,100.00
2022-11-02T03:57:24.689Z,100.00
2022-11-02T03:58:27.973Z,100.00
2022-11-02T03:59:32.503Z,100.00
2022-11-02T04:00:36.055Z,100.00
2022-11-02T04:01:46.264Z,100.00
2022-11-02T04:02:52.739Z,100.00
2022-11-02T04:03:55.128Z,100.00
2022-11-02T04:04:57.344Z,100.00
2022-11-02T04:06:00.676Z,100.00
2022-11-02T04:07:06.856Z,100.00
2022-11-02T04:08:21.741Z,100.00
2022-11-02T04:09:29.927Z,100.00
2022-11-02T04:10:32.700Z,100.00
2022-11-02T04:11:54.726Z,100.00
2022-11-02T04:13:15.190Z,100.00
2022-11-02T04:14:36.447Z,100.00
2022-11-02T04:15:38.579Z,100.00
2022-11-02T04:16:40.904Z,100.00
2022-11-02T04:18:07.442Z,100.00
2022-11-02T04:19:28.684Z,100.00
2022-11-02T04:20:41.081Z,100.00
2022-11-02T04:22:03.219Z,100.00
2022-11-02T04:23:26.171Z,100.00
2022-11-02T04:24:47.111Z,100.00
2022-11-02T04:25:55.594Z,100.00
2022-11-02T04:27:09.899Z,100.00
2022-11-02T04:28:12.136Z,100.00
2022-11-02T04:29:24.079Z,100.00
2022-11-02T04:30:26.214Z,100.00
2022-11-02T04:31:30.942Z,100.00
2022-11-02T04:32:59.170Z,100.00
2022-11-02T04:34:04.127Z,100.00
2022-11-02T04:35:07.365Z,100.00
2022-11-02T04:36:09.677Z,100.00
2022-11-02T04:37:42.956Z,100.00
2022-11-02T04:38:45.220Z,100.00
2022-11-02T04:40:02.488Z,100.00
2022-11-02T04:41:23.276Z,100.00
2022-11-02T04:42:27.826Z,100.00
2022-11-02T04:43:33.322Z,100.00
2022-11-02T04:44:35.488Z,100.00
2022-11-02T04:45:41.380Z,100.00
2022-11-02T04:46:44.809Z,100.00
2022-11-02T04:47:48.401Z,100.00
2022-11-02T04:48:50.712Z,100.00
2022-11-02T04:49:53.301Z,100.00
2022-11-02T04:50:55.440Z,100.00
2022-11-02T04:51:57.561Z,100.00
2022-11-02T04:53:02.713Z,100.00
2022-11-02T04:54:06.748Z,100.00
2022-11-02T04:55:09.269Z,100.00
2022-11-02T04:56:11.681Z,100.00
2022-11-02T04:57:13.921Z,100.00
2022-11-02T04:58:16.071Z,100.00
2022-11-02T04:59:18.265Z,100.00
2022-11-02T05:00:21.762Z,100.00
2022-11-02T05:01:26.104Z,100.00
2022-11-02T05:02:28.357Z,100.00
2022-11-02T05:03:31.302Z,100.00
2022-11-02T05:04:33.429Z,100.00
2022-11-02T05:05:35.543Z,100.00
2022-11-02T05:06:37.697Z,100.00
2022-11-02T05:07:40.285Z,100.00
2022-11-02T05:08:42.594Z,100.00
2022-11-02T05:09:45.097Z,100.00
2022-11-02T05:10:48.541Z,100.00
2022-11-02T05:11:50.807Z,100.00
2022-11-02T05:13:00.091Z,100.00
2022-11-02T05:14:06.747Z,100.00
2022-11-02T05:15:09.426Z,100.00
2022-11-02T05:16:14.312Z,100.00
2022-11-02T05:17:16.535Z,100.00
2022-11-02T05:18:19.386Z,100.00
2022-11-02T05:19:22.673Z,100.00
2022-11-02T05:20:24.785Z,100.00
2022-11-02T05:21:28.793Z,100.00
2022-11-02T05:22:31.477Z,100.00
2022-11-02T05:23:33.744Z,100.00
2022-11-02T05:24:36.512Z,100.00
2022-11-02T05:25:40.122Z,100.00
2022-11-02T05:26:42.489Z,100.00
2022-11-02T05:27:44.727Z,100.00
2022-11-02T05:28:46.885Z,100.00
2022-11-02T05:29:49.054Z,100.00
2022-11-02T05:30:51.984Z,100.00
2022-11-02T05:31:54.192Z,100.00
2022-11-02T05:32:57.612Z,100.00
2022-11-02T05:34:00.013Z,100.00
2022-11-02T05:35:03.144Z,100.00
2022-11-02T05:36:05.691Z,100.00
2022-11-02T05:37:09.837Z,100.00
2022-11-02T05:38:12.272Z,100.00
2022-11-02T05:39:14.595Z,100.00
2022-11-02T05:40:17.167Z,100.00
2022-11-02T05:41:19.248Z,100.00
2022-11-02T05:42:21.391Z,100.00
2022-11-02T05:43:24.230Z,100.00
2022-11-02T05:44:26.357Z,100.00
2022-11-02T05:45:28.859Z,100.00
2022-11-02T05:46:31.050Z,100.00
2022-11-02T05:47:34.268Z,100.00
2022-11-02T05:48:36.372Z,100.00
2022-11-02T05:49:38.500Z,100.00
2022-11-02T05:50:40.637Z,100.00
2022-11-02T05:51:44.040Z,100.00
2022-11-02T05:52:46.573Z,100.00
2022-11-02T05:53:48.871Z,100.00
2022-11-02T05:54:50.962Z,100.00
2022-11-02T05:55:57.449Z,100.00
2022-11-02T05:56:59.768Z,100.00
2022-11-02T05:58:01.876Z,100.00
2022-11-02T05:59:04.010Z,100.00
2022-11-02T06:00:07.283Z,100.00
2022-11-02T06:01:14.420Z,100.00
2022-11-02T06:02:16.637Z,100.00
2022-11-02T06:03:19.024Z,100.00
2022-11-02T06:04:21.237Z,100.00
2022-11-02T06:05:24.010Z,100.00
2022-11-02T06:06:26.160Z,100.00
2022-11-02T06:07:28.279Z,100.00
2022-11-02T06:08:35.370Z,100.00
2022-11-02T06:09:37.585Z,100.00
2022-11-02T06:10:42.835Z,100.00
2022-11-02T06:11:44.956Z,100.00
2022-11-02T06:12:47.133Z,100.00
2022-11-02T06:13:50.975Z,100.00
2022-11-02T06:14:53.102Z,100.00
2022-11-02T06:15:59.536Z,100.00
2022-11-02T06:17:01.655Z,100.00
2022-11-02T06:18:03.973Z,100.00
2022-11-02T06:19:06.168Z,100.00
2022-11-02T06:20:09.059Z,100.00
2022-11-02T06:21:11.528Z,100.00
2022-11-02T06:22:13.663Z,100.00
2022-11-02T06:23:18.141Z,100.00
2022-11-02T06:24:21.139Z,100.00
2022-11-02T06:25:24.321Z,100.00
2022-11-02T06:26:27.325Z,100.00
2022-11-02T06:27:29.450Z,100.00
2022-11-02T06:28:32.028Z,100.00
2022-11-02T06:29:34.188Z,100.00
2022-11-02T06:30:36.346Z,100.00
2022-11-02T06:31:38.608Z,100.00
2022-11-02T06:32:46.709Z,100.00
2022-11-02T06:33:48.867Z,100.00
2022-11-02T06:34:50.948Z,100.00
2022-11-02T06:35:54.436Z,100.00
2022-11-02T06:36:56.557Z,100.00
2022-11-02T06:37:58.647Z,100.00
2022-11-02T06:39:00.772Z,100.00
2022-11-02T06:40:02.916Z,100.00
2022-11-02T06:41:06.679Z,100.00
2022-11-02T06:42:10.199Z,100.00
2022-11-02T06:43:16.662Z,100.00
2022-11-02T06:44:22.770Z,100.00
2022-11-02T06:45:25.315Z,100.00
2022-11-02T06:46:28.578Z,100.00
2022-11-02T06:47:36.414Z,100.00
2022-11-02T06:48:38.615Z,100.00
2022-11-02T06:49:40.848Z,100.00
2022-11-02T06:50:43.027Z,100.00
2022-11-02T06:51:45.154Z,100.00
2022-11-02T06:52:47.718Z,100.00
2022-11-02T06:53:49.871Z,100.00
2022-11-02T06:54:52.029Z,100.00
2022-11-02T06:55:56.616Z,100.00
2022-11-02T06:56:58.772Z,100.00
2022-11-02T06:58:01.005Z,100.00
2022-11-02T06:59:03.182Z,100.00
2022-11-02T07:01:15.710Z,100.00
2022-11-02T07:02:18.069Z,100.00
2022-11-02T07:03:20.229Z,100.00
2022-11-02T07:04:22.693Z,100.00
2022-11-02T07:05:24.785Z,100.00
2022-11-02T07:06:27.005Z,100.00
2022-11-02T07:07:29.244Z,100.00
2022-11-02T07:08:31.466Z,100.00
2022-11-02T07:09:33.570Z,100.00
2022-11-02T07:10:35.675Z,100.00
2022-11-02T07:11:37.788Z,100.00
2022-11-02T07:12:39.917Z,100.00
2022-11-02T07:13:42.541Z,100.00
2022-11-02T07:14:44.685Z,100.00
2022-11-02T07:15:46.782Z,100.00
2022-11-02T07:16:49.158Z,100.00
2022-11-02T07:17:51.993Z,100.00
2022-11-02T07:18:54.123Z,100.00
2022-11-02T07:19:56.452Z,100.00
2022-11-02T07:20:59.468Z,100.00
2022-11-02T07:22:01.744Z,100.00
2022-11-02T07:23:05.335Z,100.00
2022-11-02T07:24:08.140Z,100.00
2022-11-02T07:25:10.298Z,100.00
2022-11-02T07:26:12.450Z,100.00
2022-11-02T07:27:14.764Z,100.00
2022-11-02T07:28:16.905Z,100.00
2022-11-02T07:29:19.452Z,100.00
2022-11-02T07:30:21.771Z,100.00
2022-11-02T07:31:23.953Z,100.00
2022-11-02T07:32:26.205Z,100.00
2022-11-02T07:33:28.342Z,100.00
2022-11-02T07:34:30.601Z,100.00
2022-11-02T07:35:34.215Z,100.00
2022-11-02T07:36:36.447Z,100.00
2022-11-02T07:37:38.900Z,100.00
2022-11-02T07:38:42.576Z,100.00
2022-11-02T07:39:44.835Z,100.00
2022-11-02T07:40:50.919Z,100.00
2022-11-02T07:41:53.237Z,100.00
2022-11-02T07:42:56.117Z,100.00
2022-11-02T07:44:08.308Z,100.00
2022-11-02T07:45:31.314Z,100.00
2022-11-02T07:46:33.625Z,100.00
2022-11-02T07:47:45.448Z,100.00
2022-11-02T07:48:48.128Z,100.00
2022-11-02T07:49:50.247Z,100.00
2022-11-02T07:50:52.338Z,100.00
2022-11-02T07:51:56.526Z,100.00
2022-11-02T07:52:59.082Z,100.00
2022-11-02T07:54:02.663Z,100.00
2022-11-02T07:55:05.152Z,100.00
2022-11-02T07:56:07.760Z,100.00
2022-11-02T07:57:10.173Z,100.00
2022-11-02T07:58:15.483Z,100.00
2022-11-02T07:59:17.687Z,100.00
2022-11-02T08:00:19.886Z,100.00
2022-11-02T08:01:22.106Z,100.00
2022-11-02T08:02:24.355Z,100.00
2022-11-02T08:03:27.560Z,100.00
2022-11-02T08:04:29.730Z,100.00
2022-11-02T08:05:35.744Z,100.00
2022-11-02T08:06:37.966Z,100.00
2022-11-02T08:07:40.120Z,100.00
2022-11-02T08:08:42.544Z,100.00
2022-11-02T08:09:44.680Z,100.00
2022-11-02T08:10:48.505Z,100.00
2022-11-02T08:11:50.589Z,100.00
2022-11-02T08:12:53.000Z,100.00
2022-11-02T08:13:55.152Z,100.00
2022-11-02T08:14:58.999Z,100.00
2022-11-02T08:16:02.571Z,100.00
2022-11-02T08:17:04.679Z,100.00
2022-11-02T08:18:14.706Z,100.00
2022-11-02T08:19:16.853Z,100.00
2022-11-02T08:20:19.610Z,100.00
2022-11-02T08:21:21.706Z,100.00
2022-11-02T08:22:23.922Z,100.00
2022-11-02T08:23:26.763Z,100.00
2022-11-02T08:24:28.916Z,100.00
2022-11-02T08:25:32.113Z,100.00
2022-11-02T08:26:34.259Z,100.00
2022-11-02T08:27:36.437Z,100.00
2022-11-02T08:28:40.277Z,100.00
2022-11-02T08:29:42.943Z,100.00
2022-11-02T08:30:45.143Z,100.00
2022-11-02T08:31:47.944Z,100.00
2022-11-02T08:32:55.460Z,100.00
2022-11-02T08:33:58.849Z,100.00
2022-11-02T08:35:00.973Z,100.00
2022-11-02T08:36:04.797Z,100.00
2022-11-02T08:37:08.904Z,100.00
2022-11-02T08:38:11.571Z,100.00
2022-11-02T08:39:18.617Z,100.00
2022-11-02T08:40:21.381Z,100.00
2022-11-02T08:41:23.561Z,100.00
2022-11-02T08:42:25.744Z,100.00
2022-11-02T08:43:28.130Z,100.00
2022-11-02T08:44:30.269Z,100.00
2022-11-02T08:46:00.585Z,100.00
2022-11-02T08:46:56.423Z,100.00
2022-11-02T08:47:58.559Z,100.00
2022-11-02T08:49:00.779Z,100.00
2022-11-02T08:50:03.005Z,100.00
2022-11-02T08:51:05.748Z,100.00
2022-11-02T08:52:07.927Z,100.00
2022-11-02T08:53:10.024Z,100.00
2022-11-02T08:54:12.393Z,100.00
2022-11-02T08:55:14.515Z,100.00
2022-11-02T08:56:16.593Z,100.00
2022-11-02T08:57:18.734Z,100.00
2022-11-02T08:58:20.916Z,100.00
2022-11-02T08:59:23.012Z,100.00
2022-11-02T09:00:30.689Z,100.00
2022-11-02T09:01:32.917Z,100.00
2022-11-02T09:02:35.146Z,100.00
2022-11-02T09:03:37.313Z,100.00
2022-11-02T09:04:39.415Z,100.00
2022-11-02T09:05:43.820Z,100.00
2022-11-02T09:06:45.913Z,100.00
2022-11-02T09:07:48.002Z,100.00
2022-11-02T09:08:52.715Z,100.00
2022-11-02T09:09:58.378Z,100.00
2022-11-02T09:11:02.495Z,100.00
2022-11-02T09:12:04.902Z,100.00
2022-11-02T09:13:08.762Z,100.00
2022-11-02T09:14:11.145Z,100.00
2022-11-02T09:15:13.402Z,100.00
2022-11-02T09:16:15.889Z,100.00
2022-11-02T09:17:18.066Z,100.00
2022-11-02T09:18:20.821Z,100.00
2022-11-02T09:19:23.021Z,100.00
2022-11-02T09:20:25.374Z,100.00
2022-11-02T09:21:27.483Z,100.00
2022-11-02T09:22:30.501Z,100.00
2022-11-02T09:23:33.088Z,100.00
2022-11-02T09:24:35.284Z,100.00
2022-11-02T09:25:37.670Z,100.00
2022-11-02T09:26:39.830Z,100.00
2022-11-02T09:27:42.748Z,100.00
2022-11-02T09:28:44.931Z,100.00
2022-11-02T09:29:47.099Z,100.00
2022-11-02T09:30:49.545Z,100.00
2022-11-02T09:31:51.692Z,100.00
2022-11-02T09:33:02.547Z,100.00
2022-11-02T09:34:05.009Z,100.00
2022-11-02T09:35:10.364Z,100.00
2022-11-02T09:36:12.525Z,100.00
2022-11-02T09:37:14.663Z,100.00
2022-11-02T09:38:20.343Z,100.00
2022-11-02T09:39:24.793Z,100.00
2022-11-02T09:40:36.570Z,100.00
2022-11-02T09:41:52.164Z,100.00
2022-11-02T09:43:08.542Z,100.00
2022-11-02T09:44:56.864Z,100.00
2022-11-02T09:46:09.472Z,100.00
2022-11-02T09:48:40.762Z,100.00
2022-11-02T09:49:44.532Z,97.40
2022-11-02T09:50:57.755Z,95.56
2022-11-02T09:52:03.677Z,96.60
2022-11-02T09:53:10.432Z,98.45
2022-11-02T09:54:35.499Z,100.00
2022-11-02T09:55:49.504Z,100.00
2022-11-02T09:56:55.130Z,100.00
2022-11-02T09:58:06.651Z,98.71
2022-11-02T09:59:18.026Z,97.91
2022-11-02T10:00:20.204Z,100.00
2022-11-02T10:01:37.154Z,100.00
2022-11-02T10:03:04.576Z,100.00
2022-11-02T10:04:39.468Z,100.00
2022-11-02T10:05:46.868Z,100.00
2022-11-02T10:07:02.915Z,100.00
2022-11-02T10:08:20.201Z,100.00
2022-11-02T10:09:45.578Z,100.00
2022-11-02T10:11:01.015Z,100.00
2022-11-02T10:12:14.268Z,100.00
2022-11-02T10:13:36.458Z,100.00
2022-11-02T10:14:48.330Z,100.00
2022-11-02T10:15:57.934Z,100.00
2022-11-02T10:17:05.817Z,100.00
2022-11-02T10:18:16.450Z,100.00
2022-11-02T10:19:22.244Z,100.00
2022-11-02T10:20:33.071Z,100.00
2022-11-02T10:21:39.318Z,100.00
2022-11-02T10:22:42.643Z,100.00
2022-11-02T10:23:50.966Z,100.00
2022-11-02T10:24:57.112Z,100.00
2022-11-02T10:26:01.576Z,100.00
2022-11-02T10:27:14.256Z,100.00
2022-11-02T10:28:25.996Z,100.00
2022-11-02T10:29:46.513Z,100.00
2022-11-02T10:30:50.254Z,100.00
2022-11-02T10:31:52.462Z,100.00
2022-11-02T10:32:56.142Z,100.00
2022-11-02T10:34:13.228Z,100.00
2022-11-02T10:35:40.717Z,100.00
2022-11-02T10:36:57.817Z,100.00
2022-11-02T10:38:17.442Z,100.00
2022-11-02T10:39:37.793Z,100.00
2022-11-02T10:41:18.266Z,100.00
2022-11-02T10:42:32.645Z,100.00
2022-11-02T10:44:07.160Z,100.00
2022-11-02T10:45:31.110Z,100.00
2022-11-02T10:46:45.150Z,100.00
2022-11-02T10:48:10.042Z,100.00
2022-11-02T10:49:51.239Z,100.00
2022-11-02T10:50:59.312Z,100.00
2022-11-02T10:52:01.511Z,100.00
2022-11-02T10:53:35.175Z,96.95
2022-11-02T10:54:33.274Z,91.88
2022-11-02T10:55:43.147Z,93.09
2022-11-02T10:56:47.146Z,93.50
2022-11-02T10:57:51.450Z,96.10
2022-11-02T10:59:00.100Z,97.56
2022-11-02T11:00:23.958Z,100.00
2022-11-02T11:01:27.946Z,100.00
2022-11-02T11:02:30.741Z,100.00
2022-11-02T11:03:32.936Z,100.00
2022-11-02T11:04:35.108Z,100.00
2022-11-02T11:05:49.455Z,100.00
2022-11-02T11:06:52.466Z,100.00
2022-11-02T11:07:54.779Z,100.00
2022-11-02T11:09:25.538Z,100.00
2022-11-02T11:10:28.200Z,100.00
2022-11-02T11:11:33.646Z,100.00
2022-11-02T11:12:40.993Z,100.00
2022-11-02T11:16:48.026Z,100.00
2022-11-02T11:19:40.744Z,100.00
2022-11-02T11:20:44.329Z,100.00
2022-11-02T11:21:47.001Z,100.00
2022-11-02T11:23:09.328Z,97.41
2022-11-02T11:24:32.986Z,95.17
2022-11-02T11:25:35.120Z,91.37
2022-11-02T11:26:37.212Z,90.47
2022-11-02T11:27:45.506Z,88.86
2022-11-02T11:28:57.543Z,88.24
2022-11-02T11:29:59.730Z,86.32
2022-11-02T11:31:22.541Z,81.19
2022-11-02T11:32:30.221Z,77.26
2022-11-02T11:33:42.122Z,74.20
2022-11-02T11:34:49.996Z,73.84
2022-11-02T11:35:52.471Z,72.48
2022-11-02T11:37:15.044Z,70.96
2022-11-02T11:38:21.539Z,73.77
2022-11-02T11:39:30.128Z,73.86
2022-11-02T11:40:37.183Z,71.71
2022-11-02T11:41:41.471Z,70.96
2022-11-02T11:42:43.683Z,72.62
2022-11-02T11:43:47.298Z,78.28
2022-11-02T11:45:06.220Z,81.13
2022-11-02T11:46:09.841Z,85.94
2022-11-02T11:47:13.487Z,90.45
2022-11-02T11:48:31.058Z,95.78
2022-11-02T11:51:01.294Z,100.00
2022-11-02T11:52:04.226Z,100.00
2022-11-02T11:53:09.317Z,100.00
2022-11-02T11:54:28.094Z,100.00
2022-11-02T11:55:31.910Z,100.00
2022-11-02T11:56:35.062Z,100.00
2022-11-02T11:58:51.196Z,100.00
2022-11-02T11:59:58.827Z,100.00
2022-11-02T12:01:12.950Z,97.79
2022-11-02T12:02:30.686Z,89.52
2022-11-02T12:03:33.360Z,86.42
2022-11-02T12:04:36.143Z,81.49
2022-11-02T12:05:46.973Z,77.47
2022-11-02T12:07:13.200Z,74.97
2022-11-02T12:08:30.118Z,70.63
2022-11-02T12:10:23.569Z,70.43
2022-11-02T12:11:42.434Z,69.36
2022-11-02T12:12:55.856Z,68.94
2022-11-02T12:14:10.814Z,68.04
2022-11-02T12:15:38.980Z,68.01
2022-11-02T12:16:56.432Z,67.14
2022-11-02T12:18:33.670Z,68.76
2022-11-02T12:19:54.046Z,75.55
2022-11-02T12:21:33.332Z,80.44
2022-11-02T12:22:54.193Z,83.63
2022-11-02T12:24:01.868Z,81.48
2022-11-02T12:25:19.936Z,78.89
2022-11-02T12:26:22.027Z,76.86
2022-11-02T12:27:57.073Z,73.72
2022-11-02T12:28:59.139Z,73.42
2022-11-02T12:30:37.608Z,69.09
2022-11-02T12:31:42.171Z,67.58
2022-11-02T12:32:47.074Z,66.82
2022-11-02T12:34:12.872Z,66.74
2022-11-02T12:35:32.731Z,68.42
2022-11-02T12:37:03.426Z,74.12
2022-11-02T12:38:28.188Z,78.77
2022-11-02T12:39:48.634Z,76.46
2022-11-02T12:41:05.072Z,74.14
2022-11-02T12:42:31.255Z,71.25
2022-11-02T12:43:43.674Z,69.68
2022-11-02T12:45:19.509Z,69.68
2022-11-02T12:46:58.832Z,67.90
2022-11-02T12:48:04.078Z,66.88
2022-11-02T12:49:12.640Z,65.04
2022-11-02T12:50:27.552Z,64.61
2022-11-02T12:51:38.317Z,64.24
2022-11-02T12:52:40.288Z,65.20
2022-11-02T12:53:48.944Z,67.00
2022-11-02T12:54:57.478Z,64.66
2022-11-02T12:56:03.272Z,63.11
2022-11-02T12:57:11.042Z,62.42
2022-11-02T12:58:21.989Z,61.15
2022-11-02T12:59:32.454Z,59.70
2022-11-02T13:00:40.989Z,60.79
2022-11-02T13:01:46.920Z,61.01
2022-11-02T13:02:55.297Z,64.35
2022-11-02T13:04:17.361Z,68.02
2022-11-02T13:05:23.610Z,71.51
2022-11-02T13:06:34.069Z,71.80
2022-11-02T13:07:57.878Z,71.84
2022-11-02T13:09:07.684Z,74.07
2022-11-02T13:10:35.881Z,76.67
2022-11-02T13:11:43.082Z,78.33
2022-11-02T13:12:48.347Z,80.85
2022-11-02T13:13:55.663Z,81.55
2022-11-02T13:14:58.662Z,81.22
2022-11-02T13:16:03.145Z,84.39
2022-11-02T13:17:11.529Z,85.31
2022-11-02T13:18:53.228Z,85.57
2022-11-02T13:20:00.395Z,85.58
2022-11-02T13:21:04.943Z,86.59
2022-11-02T13:22:10.603Z,87.65
2022-11-02T13:23:26.325Z,87.72
2022-11-02T13:24:34.484Z,87.38
2022-11-02T13:25:51.801Z,85.56
2022-11-02T13:26:57.468Z,87.45
2022-11-02T13:28:16.790Z,88.52
2022-11-02T13:29:48.371Z,86.27
2022-11-02T13:30:52.116Z,83.42
2022-11-02T13:32:01.010Z,83.96
2022-11-02T13:33:26.560Z,82.89
2022-11-02T13:34:34.878Z,84.27
2022-11-02T13:35:43.533Z,84.69
2022-11-02T13:36:46.956Z,85.93
2022-11-02T13:37:55.595Z,85.63
2022-11-02T13:39:05.970Z,82.58
2022-11-02T13:40:26.103Z,80.78
2022-11-02T13:41:43.022Z,81.83
2022-11-02T13:42:54.143Z,83.12
2022-11-02T13:44:41.374Z,83.43
2022-11-02T13:46:05.593Z,85.90
2022-11-02T13:47:15.125Z,86.22
2022-11-02T13:48:39.385Z,86.76
2022-11-02T13:49:57.915Z,83.98
2022-11-02T13:51:07.509Z,83.27
2022-11-02T13:52:15.843Z,82.78
2022-11-02T13:53:33.655Z,80.04
2022-11-02T13:54:44.604Z,78.86
2022-11-02T13:56:11.278Z,77.99
2022-11-02T13:57:25.661Z,77.57
2022-11-02T13:58:34.104Z,77.99
2022-11-02T13:59:43.263Z,78.07
2022-11-02T14:00:46.205Z,77.51
2022-11-02T14:01:51.189Z,78.59
2022-11-02T14:03:12.360Z,81.10
2022-11-02T14:04:16.041Z,82.90
2022-11-02T14:05:30.018Z,83.72
2022-11-02T14:06:43.908Z,84.52
2022-11-02T14:07:46.100Z,85.53
2022-11-02T14:08:52.922Z,88.21
2022-11-02T14:10:07.215Z,87.61
2022-11-02T14:11:09.271Z,89.12
2022-11-02T14:12:13.200Z,90.31
2022-11-02T14:13:17.559Z,91.92
2022-11-02T14:14:23.018Z,93.56
2022-11-02T14:15:25.070Z,94.27
2022-11-02T14:16:45.037Z,95.36
2022-11-02T14:18:02.394Z,96.43
2022-11-02T14:19:25.897Z,95.47
2022-11-02T14:20:46.461Z,93.85
2022-11-02T14:21:52.343Z,91.22
2022-11-02T14:23:10.030Z,91.29